CANO2: Clear Boggy Creek abv Caney Creek nr Caney, OK

                                SHEF ID:       CANO2     Clear Boggy Creek abv Caney Cree
STATION TYPE:
Regulating: Stage = 19.00, Flow = 2600

STAGE RIV-FLOW VOLTAGE BAT-LOAD
ft cfs volt volt
Ccp-Rev Ccp-Rev Ccp-Rev Ccp-Rev
(America/Chicago)
04/26 00:00 13.79 817 12.63 ----
04/26 01:00 14.69 1100 12.63 ----
04/26 02:00 16.60 1750 12.63 ----
04/26 03:00 19.05 2620 12.61 ----
04/26 04:00 20.89 3300 12.60 ----
04/26 05:00 22.12 3770 12.59 ----
04/26 06:00 22.82 4040 12.57 ----
04/26 07:00 23.22 4200 12.56 ----
04/26 08:00 23.44 4280 12.63 ----
04/26 09:00 23.58 4340 12.79 ----
04/26 10:00 23.69 4380 13.55 ----
04/26 11:00 23.73 4400 13.66 ----
04/26 12:00 23.75 4400 13.65 ----
04/26 13:00 23.78 4420 13.60 ----
04/26 14:00 23.71 4390 13.63 ----
04/26 15:00 23.66 4370 13.56 ----
04/26 16:00 23.55 4330 13.37 ----
04/26 17:00 23.42 4280 13.37 ----
04/26 18:00 23.22 4200 13.33 ----
04/26 19:00 22.98 4100 13.13 ----
04/26 20:00 22.67 3980 12.94 ----
04/26 21:00 22.30 3840 12.80 ----
04/26 22:00 21.92 3690 12.71 ----
04/26 23:00 ---- ---- ---- ----
Data processed at Mon 27Apr2026 04:01 GMT

NOTICE: If you are parsing this page

Please convert to using our Data API. Starting early 2026 we will be migrating to: https://water.usace.army.mil with modern pages rendered in JavaScript. When this migration completes you will no longer be able to scrape this page! CWMSDataAPI (CDA)

Timeseries IDs (TSIDs)

TSIDs used from left to right in the data table
CANE.Stage.Inst.1Hour.0.Ccp-Rev
CANE.Flow.Inst.1Hour.0.Ccp-Rev
CANE.Volt-Battery.Inst.1Hour.0.Ccp-Rev
CANE.Volt-Battery Load.Inst.1Hour.0.Ccp-Rev

                            

All information presented herein is the property of the government of the United States of America and may be revised or deleted at any time without prior notice. Dissemination of this information without the expressed written consent of the Public Affairs Office, Tulsa District U.S. Army Corps of Engineers is strictly prohibited. These data are gathered electronically and, as presented, have NOT undergone any form of quality control. These data are NOT guaranteed to be valid or correct.